Main page
METAR-TAF:

METAR-TAF

Airports :

Abu Simbel Airport

Abu Simbel, Egypt

latitude: 22-22-33N, longitude: 31-36-42E, elevation: 188 m

Current weather observation

The report was made 1 hour and 5 minutes ago, at 03:00 UTC
Wind 4 kt from the North/Northwest
Temperature 26°C
Humidity 32%
Pressure 1012 hPa
Visibility 10 km or more
no clouds below 1500 m and no cumulonimbus

METAR: HEBL 260300Z 34004KT CAVOK 26/08 Q1012 NOSIG

Time: 06:05 (04:05 UTC)

Forecast

The report was made 5 hours and 5 minutes ago, at 23:00 UTC
Forecast valid from 26 at 00 UTC to 27 at 06 UTC
Wind 12 kt from the North/Northwest
Visibility 10 km or more
no clouds below 1500 m and no cumulonimbus

TAF: HEBL 252300Z 2600/2706 34012KT CAVOK

Weather observations and forecasts of more than 4000 airports (METAR and TAF reports).

The available stations are represented by yellow and red dots on the map.

Hover mouse over dot to see the name of the station.

Then click to see weather observations and forecasts.

To change the map : click on the green buttons with a black cross to zoom in, on the green button with a dash to zoom out, or on the green arrows for adjacent maps.


METAR-TAF: